• Join FlightAware (Why Join?)
  • Login
  • US Flag 
12:28PM EST


 

Airport Tracker/Info


-or-


 

Live Flight TrackerFlight Track Log ✈ CSN3814 ✈ 23-Apr-2013 ✈ ZSOF / HFE - ZGGG / CAN

Flight Track Log - Related Links

Times and Time Zones

All times are in EDT time to prevent confusion due to time zone crossing. See the CSN3814 flight status page for this flight to view local times or setup timezone preferences in your user account.

Time Position Orientation Groundspeed Altitude Reporting Facility
EDT Latitude Longitude Course Direction KTS MPH feet Rate Location/Type
11:35PM 31.6759 117.2443 204° Southwest  Level Estimated
11:36PM 31.5717 117.1903 204° Southwest  Level Estimated
11:37PM 31.4676 117.1364 204° Southwest  Level Estimated
11:38PM 31.3634 117.0826 204° Southwest  Level Estimated
11:39PM 31.2591 117.0290 204° Southwest  Level Estimated
11:40PM 31.1549 116.9755 204° Southwest  Level Estimated
11:41PM 31.0506 116.9221 204° Southwest  Level Estimated
11:42PM 30.9464 116.8688 204° Southwest  Level Estimated
11:43PM 30.8420 116.8156 204° Southwest  Level Estimated
11:44PM 30.7377 116.7625 204° Southwest  Level Estimated
11:45PM 30.6334 116.7096 204° Southwest  Level Estimated
11:46PM 30.5290 116.6567 204° Southwest  Level Estimated
11:47PM 30.4246 116.6040 204° Southwest  Level Estimated
11:48PM 30.3202 116.5514 204° Southwest  Level Estimated
11:49PM 30.2157 116.4989 203° Southwest  Level Estimated
11:50PM 30.1113 116.4465 203° Southwest  Level Estimated
11:51PM 30.0068 116.3942 203° Southwest  Level Estimated
11:52PM 29.9023 116.3420 203° Southwest  Level Estimated
11:53PM 29.7978 116.2900 203° Southwest  Level Estimated
11:54PM 29.6932 116.2380 203° Southwest  Level Estimated
11:55PM 29.5887 116.1862 203° Southwest  Level Estimated
11:56PM 29.4841 116.1345 203° Southwest  Level Estimated
11:57PM 29.3795 116.0828 203° Southwest  Level Estimated
11:58PM 29.2749 116.0313 203° Southwest  Level Estimated
11:59PM 29.1702 115.9799 203° Southwest  Level Estimated
12:00AM 29.0656 115.9286 203° Southwest  Level Estimated
12:01AM 28.9609 115.8774 203° Southwest  Level Estimated
12:02AM 28.8562 115.8263 203° Southwest  Level Estimated
12:03AM 28.7515 115.7753 203° Southwest  Level Estimated
12:04AM 28.6467 115.7244 203° Southwest  Level Estimated
12:05AM 28.5420 115.6736 203° Southwest  Level Estimated
12:06AM 28.4372 115.6229 203° Southwest  Level Estimated
12:07AM 28.3324 115.5723 203° Southwest  Level Estimated
12:08AM 28.2276 115.5218 203° Southwest  Level Estimated
12:09AM 28.1228 115.4714 203° Southwest  Level Estimated
12:10AM 28.0179 115.4211 203° Southwest  Level Estimated
12:11AM 27.9131 115.3709 203° Southwest  Level Estimated
12:12AM 27.8082 115.3208 203° Southwest  Level Estimated
12:13AM 27.7033 115.2708 203° Southwest  Level Estimated
12:14AM 27.5984 115.2209 203° Southwest  Level Estimated
12:15AM 27.4934 115.1711 203° Southwest  Level Estimated
12:16AM 27.3885 115.1214 203° Southwest  Level Estimated
12:17AM 27.2835 115.0718 203° Southwest  Level Estimated
12:18AM 27.1785 115.0222 203° Southwest  Level Estimated
12:19AM 27.0735 114.9728 203° Southwest  Level Estimated
12:20AM 26.9685 114.9235 203° Southwest  Level Estimated
12:21AM 26.8634 114.8742 203° Southwest  Level Estimated
12:22AM 26.7584 114.8251 203° Southwest  Level Estimated
12:23AM 26.6533 114.7760 203° Southwest  Level Estimated
12:24AM 26.5482 114.7270 203° Southwest  Level Estimated
12:25AM 26.4431 114.6781 203° Southwest  Level Estimated
12:26AM 26.3379 114.6293 203° Southwest  Level Estimated
12:27AM 26.2328 114.5806 203° Southwest  Level Estimated
12:28AM 26.1276 114.5320 203° Southwest  Level Estimated
12:29AM 26.0225 114.4834 203° Southwest  Level Estimated
12:30AM 25.9173 114.4350 203° Southwest  Level Estimated
12:31AM 25.8121 114.3866 202° Southwest  Level Estimated
12:32AM 25.7069 114.3383 202° Southwest  Level Estimated
12:33AM 25.6016 114.2902 202° Southwest  Level Estimated
12:34AM 25.4963 114.2420 202° Southwest  Level Estimated
12:35AM 25.3911 114.1940 202° Southwest  Level Estimated
12:36AM 25.2858 114.1461 202° Southwest  Level Estimated
12:37AM 25.1805 114.0982 202° Southwest  Level Estimated
12:38AM 25.0752 114.0504 202° Southwest  Level Estimated
12:39AM 24.9698 114.0027 202° Southwest  Level Estimated
12:40AM 24.8645 113.9551 202° Southwest  Level Estimated
12:41AM 24.7591 113.9076 202° Southwest  Level Estimated
12:42AM 24.6537 113.8602 202° Southwest  Level Estimated
12:43AM 24.5484 113.8128 202° Southwest  Level Estimated
12:44AM 24.4429 113.7655 202° Southwest  Level Estimated
12:45AM 24.3375 113.7183 202° Southwest  Level Estimated
12:46AM 24.2321 113.6712 202° Southwest  Level Estimated
12:47AM 24.1266 113.6241 202° Southwest  Level Estimated
12:48AM 24.0212 113.5771 202° Southwest  Level Estimated
12:49AM 23.9157 113.5302 202° Southwest  Level Estimated
12:50AM 23.8102 113.4834 202° Southwest  Level Estimated
12:51AM 23.7047 113.4367 202° Southwest  Level Estimated
12:52AM 23.5992 113.3900 202° Southwest  Level Estimated
12:53AM 23.4936 113.3434 202° Southwest  Level Estimated
12:54AM 23.3924 113.2988 202° Southwest  Level Estimated
12:55AM 23.3924 113.2988 223° Southwest  Level Estimated
12:56AM 23.3924 113.2988 223° Southwest  Level Estimated
12:57AM 23.3924 113.2988 223° Southwest  Level Estimated
12:58AM 23.3924 113.2988 223° Southwest  Level Estimated
12:59AM 23.3924 113.2988 223° Southwest  Level Estimated
01:00AM 23.3924 113.2988 223° Southwest  Level Estimated
01:01AM 23.3924 113.2988 223° Southwest  Level Estimated
01:02AM 23.3924 113.2988 223° Southwest  Level Estimated
01:03AM 23.3924 113.2988 223° Southwest  Level Estimated
01:04AM 23.3924 113.2988 223° Southwest  Level Estimated
01:05AM 23.3924 113.2988 223° Southwest  Level Estimated
01:06AM 23.3924 113.2988 223° Southwest  Level Estimated
01:07AM 23.3924 113.2988 223° Southwest  Level Estimated
01:08AM 23.3924 113.2988 223° Southwest  Level Estimated